sensor_id;sensor_type;location;lat;lon;timestamp;P1;durP1;ratioP1;P2;durP2;ratioP2
70924;SDS011;58577;52.410;13.242;2022-08-07T00:00:06;16.48;;;7.43;;
70924;SDS011;58577;52.410;13.242;2022-08-07T00:02:57;13.65;;;7.45;;
70924;SDS011;58577;52.410;13.242;2022-08-07T00:05:44;15.90;;;7.38;;
70924;SDS011;58577;52.410;13.242;2022-08-07T00:08:30;17.08;;;6.82;;
70924;SDS011;58577;52.410;13.242;2022-08-07T00:11:16;14.85;;;6.93;;
70924;SDS011;58577;52.410;13.242;2022-08-07T00:14:02;16.90;;;7.65;;
70924;SDS011;58577;52.410;13.242;2022-08-07T00:16:48;15.27;;;7.28;;
70924;SDS011;58577;52.410;13.242;2022-08-07T00:19:34;15.40;;;6.57;;
70924;SDS011;58577;52.410;13.242;2022-08-07T00:22:20;13.95;;;6.95;;
70924;SDS011;58577;52.410;13.242;2022-08-07T00:25:06;16.42;;;7.32;;
70924;SDS011;58577;52.410;13.242;2022-08-07T00:27:53;18.92;;;7.70;;
70924;SDS011;58577;52.410;13.242;2022-08-07T00:30:39;18.00;;;7.43;;
70924;SDS011;58577;52.410;13.242;2022-08-07T00:33:27;16.48;;;7.80;;
70924;SDS011;58577;52.410;13.242;2022-08-07T00:36:14;15.73;;;7.95;;
70924;SDS011;58577;52.410;13.242;2022-08-07T00:39:00;16.42;;;7.05;;
70924;SDS011;58577;52.410;13.242;2022-08-07T00:41:53;13.70;;;7.07;;
70924;SDS011;58577;52.410;13.242;2022-08-07T00:44:40;17.63;;;8.32;;
70924;SDS011;58577;52.410;13.242;2022-08-07T00:47:26;16.60;;;7.65;;
70924;SDS011;58577;52.410;13.242;2022-08-07T00:50:12;15.02;;;6.60;;
70924;SDS011;58577;52.410;13.242;2022-08-07T00:52:58;14.65;;;6.65;;
70924;SDS011;58577;52.410;13.242;2022-08-07T00:55:44;15.63;;;6.80;;
70924;SDS011;58577;52.410;13.242;2022-08-07T00:58:30;16.15;;;7.53;;
70924;SDS011;58577;52.410;13.242;2022-08-07T01:01:17;17.35;;;7.90;;
70924;SDS011;58577;52.410;13.242;2022-08-07T01:04:04;16.27;;;7.45;;
70924;SDS011;58577;52.410;13.242;2022-08-07T01:06:51;16.65;;;8.23;;
70924;SDS011;58577;52.410;13.242;2022-08-07T01:09:37;18.60;;;8.48;;
70924;SDS011;58577;52.410;13.242;2022-08-07T01:12:23;18.98;;;7.60;;
70924;SDS011;58577;52.410;13.242;2022-08-07T01:15:09;19.95;;;7.85;;
70924;SDS011;58577;52.410;13.242;2022-08-07T01:17:55;15.70;;;7.70;;
70924;SDS011;58577;52.410;13.242;2022-08-07T01:20:43;17.20;;;7.57;;
70924;SDS011;58577;52.410;13.242;2022-08-07T01:23:31;19.63;;;8.53;;
70924;SDS011;58577;52.410;13.242;2022-08-07T01:26:18;20.23;;;9.32;;
70924;SDS011;58577;52.410;13.242;2022-08-07T01:29:08;20.40;;;8.32;;
70924;SDS011;58577;52.410;13.242;2022-08-07T01:31:56;18.23;;;8.95;;
70924;SDS011;58577;52.410;13.242;2022-08-07T01:34:42;20.00;;;9.20;;
70924;SDS011;58577;52.410;13.242;2022-08-07T01:37:30;17.85;;;7.90;;
70924;SDS011;58577;52.410;13.242;2022-08-07T01:40:18;19.58;;;8.95;;
70924;SDS011;58577;52.410;13.242;2022-08-07T01:43:14;19.92;;;10.00;;
70924;SDS011;58577;52.410;13.242;2022-08-07T01:46:01;29.30;;;13.18;;
70924;SDS011;58577;52.410;13.242;2022-08-07T01:48:49;24.48;;;12.35;;
70924;SDS011;58577;52.410;13.242;2022-08-07T01:51:38;24.25;;;12.48;;
70924;SDS011;58577;52.410;13.242;2022-08-07T01:54:28;25.83;;;13.18;;
70924;SDS011;58577;52.410;13.242;2022-08-07T01:57:19;25.92;;;12.38;;
70924;SDS011;58577;52.410;13.242;2022-08-07T02:00:13;26.75;;;12.63;;
70924;SDS011;58577;52.410;13.242;2022-08-07T02:03:06;27.85;;;13.18;;
70924;SDS011;58577;52.410;13.242;2022-08-07T02:06:00;28.80;;;12.45;;
70924;SDS011;58577;52.410;13.242;2022-08-07T02:08:54;24.90;;;12.77;;
70924;SDS011;58577;52.410;13.242;2022-08-07T02:11:45;22.00;;;11.63;;
70924;SDS011;58577;52.410;13.242;2022-08-07T02:14:35;27.70;;;13.52;;
70924;SDS011;58577;52.410;13.242;2022-08-07T02:17:24;24.92;;;12.27;;
70924;SDS011;58577;52.410;13.242;2022-08-07T02:20:11;24.27;;;11.35;;
70924;SDS011;58577;52.410;13.242;2022-08-07T02:23:00;24.65;;;11.80;;
70924;SDS011;58577;52.410;13.242;2022-08-07T02:25:48;22.38;;;11.77;;
70924;SDS011;58577;52.410;13.242;2022-08-07T02:28:35;26.42;;;12.43;;
70924;SDS011;58577;52.410;13.242;2022-08-07T02:31:24;26.08;;;13.90;;
70924;SDS011;58577;52.410;13.242;2022-08-07T02:34:12;28.23;;;14.63;;
70924;SDS011;58577;52.410;13.242;2022-08-07T02:37:06;30.10;;;14.25;;
70924;SDS011;58577;52.410;13.242;2022-08-07T02:39:56;28.05;;;14.90;;
70924;SDS011;58577;52.410;13.242;2022-08-07T02:42:45;29.20;;;14.13;;
70924;SDS011;58577;52.410;13.242;2022-08-07T02:45:32;28.65;;;14.88;;
70924;SDS011;58577;52.410;13.242;2022-08-07T02:48:21;29.93;;;15.90;;
70924;SDS011;58577;52.410;13.242;2022-08-07T02:51:09;27.77;;;15.23;;
70924;SDS011;58577;52.410;13.242;2022-08-07T02:53:58;36.33;;;18.02;;
70924;SDS011;58577;52.410;13.242;2022-08-07T02:56:46;39.97;;;18.67;;
70924;SDS011;58577;52.410;13.242;2022-08-07T02:59:33;39.78;;;19.67;;
70924;SDS011;58577;52.410;13.242;2022-08-07T03:02:22;37.90;;;19.48;;
70924;SDS011;58577;52.410;13.242;2022-08-07T03:05:08;41.15;;;22.25;;
70924;SDS011;58577;52.410;13.242;2022-08-07T03:07:57;37.05;;;19.65;;
70924;SDS011;58577;52.410;13.242;2022-08-07T03:10:43;39.25;;;21.15;;
70924;SDS011;58577;52.410;13.242;2022-08-07T03:13:32;37.42;;;21.02;;
70924;SDS011;58577;52.410;13.242;2022-08-07T03:16:18;45.70;;;21.85;;
70924;SDS011;58577;52.410;13.242;2022-08-07T03:19:05;36.67;;;20.10;;
70924;SDS011;58577;52.410;13.242;2022-08-07T03:21:52;36.30;;;20.33;;
70924;SDS011;58577;52.410;13.242;2022-08-07T03:24:40;34.08;;;18.63;;
70924;SDS011;58577;52.410;13.242;2022-08-07T03:27:27;35.28;;;19.60;;
70924;SDS011;58577;52.410;13.242;2022-08-07T03:30:14;35.53;;;17.33;;
70924;SDS011;58577;52.410;13.242;2022-08-07T03:33:02;36.53;;;18.98;;
70924;SDS011;58577;52.410;13.242;2022-08-07T03:35:51;37.90;;;21.05;;
70924;SDS011;58577;52.410;13.242;2022-08-07T03:38:38;36.05;;;18.63;;
70924;SDS011;58577;52.410;13.242;2022-08-07T03:41:26;36.85;;;18.92;;
70924;SDS011;58577;52.410;13.242;2022-08-07T03:44:14;36.58;;;20.42;;
70924;SDS011;58577;52.410;13.242;2022-08-07T03:47:00;35.60;;;18.92;;
70924;SDS011;58577;52.410;13.242;2022-08-07T03:49:47;41.47;;;20.60;;
70924;SDS011;58577;52.410;13.242;2022-08-07T03:52:34;40.83;;;21.30;;
70924;SDS011;58577;52.410;13.242;2022-08-07T03:55:25;39.35;;;19.88;;
70924;SDS011;58577;52.410;13.242;2022-08-07T03:58:13;37.15;;;19.13;;
70924;SDS011;58577;52.410;13.242;2022-08-07T04:01:00;39.03;;;22.77;;
70924;SDS011;58577;52.410;13.242;2022-08-07T04:03:50;37.60;;;20.65;;
70924;SDS011;58577;52.410;13.242;2022-08-07T04:06:38;38.42;;;21.70;;
70924;SDS011;58577;52.410;13.242;2022-08-07T04:09:34;37.72;;;21.10;;
70924;SDS011;58577;52.410;13.242;2022-08-07T04:12:21;40.35;;;21.95;;
70924;SDS011;58577;52.410;13.242;2022-08-07T04:15:07;36.10;;;20.90;;
70924;SDS011;58577;52.410;13.242;2022-08-07T04:17:56;39.50;;;21.23;;
70924;SDS011;58577;52.410;13.242;2022-08-07T04:20:42;38.08;;;21.08;;
70924;SDS011;58577;52.410;13.242;2022-08-07T04:23:29;36.00;;;20.10;;
70924;SDS011;58577;52.410;13.242;2022-08-07T04:26:18;36.80;;;19.45;;
70924;SDS011;58577;52.410;13.242;2022-08-07T04:29:05;40.45;;;20.63;;
70924;SDS011;58577;52.410;13.242;2022-08-07T04:31:52;42.30;;;21.20;;
70924;SDS011;58577;52.410;13.242;2022-08-07T04:34:38;37.47;;;20.25;;
70924;SDS011;58577;52.410;13.242;2022-08-07T04:37:24;34.67;;;20.17;;
70924;SDS011;58577;52.410;13.242;2022-08-07T04:40:12;37.45;;;19.52;;
70924;SDS011;58577;52.410;13.242;2022-08-07T04:42:58;40.40;;;21.90;;
70924;SDS011;58577;52.410;13.242;2022-08-07T04:52:17;36.30;;;19.35;;
70924;SDS011;58577;52.410;13.242;2022-08-07T04:55:30;41.22;;;21.55;;
70924;SDS011;58577;52.410;13.242;2022-08-07T04:58:23;40.00;;;20.38;;
70924;SDS011;58577;52.410;13.242;2022-08-07T05:01:36;44.08;;;21.15;;
70924;SDS011;58577;52.410;13.242;2022-08-07T05:04:32;40.15;;;20.40;;
70924;SDS011;58577;52.410;13.242;2022-08-07T05:10:36;35.60;;;19.67;;
70924;SDS011;58577;52.410;13.242;2022-08-07T05:13:27;35.83;;;19.33;;
70924;SDS011;58577;52.410;13.242;2022-08-07T05:16:21;36.80;;;19.70;;
70924;SDS011;58577;52.410;13.242;2022-08-07T05:19:13;32.33;;;19.63;;
70924;SDS011;58577;52.410;13.242;2022-08-07T05:22:03;36.38;;;20.58;;
70924;SDS011;58577;52.410;13.242;2022-08-07T05:24:56;36.63;;;18.38;;
70924;SDS011;58577;52.410;13.242;2022-08-07T05:27:44;30.45;;;17.65;;
70924;SDS011;58577;52.410;13.242;2022-08-07T05:30:32;33.08;;;18.88;;
70924;SDS011;58577;52.410;13.242;2022-08-07T05:33:22;30.88;;;17.15;;
70924;SDS011;58577;52.410;13.242;2022-08-07T05:36:08;31.75;;;17.30;;
70924;SDS011;58577;52.410;13.242;2022-08-07T05:38:55;26.95;;;15.88;;
70924;SDS011;58577;52.410;13.242;2022-08-07T05:41:42;26.38;;;13.52;;
70924;SDS011;58577;52.410;13.242;2022-08-07T05:44:35;21.40;;;11.32;;
70924;SDS011;58577;52.410;13.242;2022-08-07T05:47:23;20.27;;;10.38;;
70924;SDS011;58577;52.410;13.242;2022-08-07T05:50:09;18.25;;;11.02;;
70924;SDS011;58577;52.410;13.242;2022-08-07T05:52:56;17.05;;;8.90;;
70924;SDS011;58577;52.410;13.242;2022-08-07T05:55:42;14.85;;;7.90;;
70924;SDS011;58577;52.410;13.242;2022-08-07T05:58:29;13.80;;;7.28;;
70924;SDS011;58577;52.410;13.242;2022-08-07T06:01:16;14.32;;;6.63;;
70924;SDS011;58577;52.410;13.242;2022-08-07T06:04:05;13.65;;;6.90;;
70924;SDS011;58577;52.410;13.242;2022-08-07T06:06:57;9.00;;;4.85;;
70924;SDS011;58577;52.410;13.242;2022-08-07T06:09:48;9.02;;;4.72;;
70924;SDS011;58577;52.410;13.242;2022-08-07T06:12:34;7.38;;;4.28;;
70924;SDS011;58577;52.410;13.242;2022-08-07T06:15:21;8.38;;;4.35;;
70924;SDS011;58577;52.410;13.242;2022-08-07T06:18:10;3.90;;;3.13;;
70924;SDS011;58577;52.410;13.242;2022-08-07T06:20:59;5.63;;;3.33;;
70924;SDS011;58577;52.410;13.242;2022-08-07T06:23:46;4.30;;;2.70;;
70924;SDS011;58577;52.410;13.242;2022-08-07T06:26:32;5.90;;;3.05;;
70924;SDS011;58577;52.410;13.242;2022-08-07T06:29:18;6.65;;;3.50;;
70924;SDS011;58577;52.410;13.242;2022-08-07T06:32:04;5.43;;;2.95;;
70924;SDS011;58577;52.410;13.242;2022-08-07T06:34:50;4.38;;;2.72;;
70924;SDS011;58577;52.410;13.242;2022-08-07T06:37:36;4.38;;;3.00;;
70924;SDS011;58577;52.410;13.242;2022-08-07T06:40:23;5.13;;;3.00;;
70924;SDS011;58577;52.410;13.242;2022-08-07T06:43:10;6.85;;;3.70;;
70924;SDS011;58577;52.410;13.242;2022-08-07T06:46:14;4.97;;;2.88;;
70924;SDS011;58577;52.410;13.242;2022-08-07T06:49:01;6.25;;;3.20;;
70924;SDS011;58577;52.410;13.242;2022-08-07T06:51:48;5.07;;;2.90;;
70924;SDS011;58577;52.410;13.242;2022-08-07T06:54:35;5.90;;;2.95;;
70924;SDS011;58577;52.410;13.242;2022-08-07T06:57:23;3.85;;;2.70;;
70924;SDS011;58577;52.410;13.242;2022-08-07T07:00:10;8.18;;;3.13;;
70924;SDS011;58577;52.410;13.242;2022-08-07T07:02:57;8.23;;;2.80;;
70924;SDS011;58577;52.410;13.242;2022-08-07T07:05:44;5.68;;;2.80;;
70924;SDS011;58577;52.410;13.242;2022-08-07T07:08:31;4.55;;;2.70;;
70924;SDS011;58577;52.410;13.242;2022-08-07T07:11:17;4.88;;;2.55;;
70924;SDS011;58577;52.410;13.242;2022-08-07T07:14:03;4.20;;;2.50;;
70924;SDS011;58577;52.410;13.242;2022-08-07T07:16:51;2.95;;;2.50;;
70924;SDS011;58577;52.410;13.242;2022-08-07T07:22:30;6.63;;;2.58;;
70924;SDS011;58577;52.410;13.242;2022-08-07T07:25:17;4.43;;;2.60;;
70924;SDS011;58577;52.410;13.242;2022-08-07T07:28:06;5.53;;;2.75;;
70924;SDS011;58577;52.410;13.242;2022-08-07T07:31:00;3.05;;;2.60;;
70924;SDS011;58577;52.410;13.242;2022-08-07T07:33:51;2.80;;;2.45;;
70924;SDS011;58577;52.410;13.242;2022-08-07T07:36:41;3.75;;;2.65;;
70924;SDS011;58577;52.410;13.242;2022-08-07T07:39:29;4.82;;;2.40;;
70924;SDS011;58577;52.410;13.242;2022-08-07T07:42:17;3.85;;;2.50;;
70924;SDS011;58577;52.410;13.242;2022-08-07T07:45:06;8.85;;;2.53;;
70924;SDS011;58577;52.410;13.242;2022-08-07T07:47:52;6.97;;;4.18;;
70924;SDS011;58577;52.410;13.242;2022-08-07T07:50:41;9.88;;;5.82;;
70924;SDS011;58577;52.410;13.242;2022-08-07T07:53:30;3.67;;;2.50;;
70924;SDS011;58577;52.410;13.242;2022-08-07T07:56:19;2.45;;;2.20;;
70924;SDS011;58577;52.410;13.242;2022-08-07T08:01:54;5.10;;;2.25;;
70924;SDS011;58577;52.410;13.242;2022-08-07T08:04:41;4.07;;;2.22;;
70924;SDS011;58577;52.410;13.242;2022-08-07T08:07:30;2.85;;;2.10;;
70924;SDS011;58577;52.410;13.242;2022-08-07T08:10:17;3.30;;;2.17;;
70924;SDS011;58577;52.410;13.242;2022-08-07T08:13:05;3.55;;;2.13;;
70924;SDS011;58577;52.410;13.242;2022-08-07T08:15:53;4.43;;;2.30;;
70924;SDS011;58577;52.410;13.242;2022-08-07T08:18:41;3.58;;;1.80;;
70924;SDS011;58577;52.410;13.242;2022-08-07T08:21:29;3.78;;;2.00;;
70924;SDS011;58577;52.410;13.242;2022-08-07T08:24:35;3.53;;;2.20;;
70924;SDS011;58577;52.410;13.242;2022-08-07T08:27:52;2.65;;;2.15;;
70924;SDS011;58577;52.410;13.242;2022-08-07T08:30:39;2.53;;;1.83;;
70924;SDS011;58577;52.410;13.242;2022-08-07T08:33:28;2.60;;;1.90;;
70924;SDS011;58577;52.410;13.242;2022-08-07T08:36:16;2.58;;;2.08;;
70924;SDS011;58577;52.410;13.242;2022-08-07T08:39:06;3.80;;;2.00;;
70924;SDS011;58577;52.410;13.242;2022-08-07T08:41:58;4.03;;;1.70;;
70924;SDS011;58577;52.410;13.242;2022-08-07T08:44:59;3.05;;;1.85;;
70924;SDS011;58577;52.410;13.242;2022-08-07T08:48:03;2.80;;;1.83;;
70924;SDS011;58577;52.410;13.242;2022-08-07T08:50:53;1.85;;;1.75;;
70924;SDS011;58577;52.410;13.242;2022-08-07T08:56:45;1.85;;;1.75;;
70924;SDS011;58577;52.410;13.242;2022-08-07T09:08:46;3.92;;;2.20;;
70924;SDS011;58577;52.410;13.242;2022-08-07T09:11:52;5.63;;;2.55;;
70924;SDS011;58577;52.410;13.242;2022-08-07T09:14:51;2.63;;;1.90;;
70924;SDS011;58577;52.410;13.242;2022-08-07T09:17:45;2.78;;;2.15;;
70924;SDS011;58577;52.410;13.242;2022-08-07T09:27:01;3.22;;;2.00;;
70924;SDS011;58577;52.410;13.242;2022-08-07T09:36:18;3.65;;;2.13;;
70924;SDS011;58577;52.410;13.242;2022-08-07T09:45:16;3.05;;;1.85;;
70924;SDS011;58577;52.410;13.242;2022-08-07T09:48:10;5.40;;;2.03;;
70924;SDS011;58577;52.410;13.242;2022-08-07T09:54:36;3.60;;;2.05;;
70924;SDS011;58577;52.410;13.242;2022-08-07T09:57:33;3.58;;;1.45;;
70924;SDS011;58577;52.410;13.242;2022-08-07T10:06:57;3.03;;;2.20;;
70924;SDS011;58577;52.410;13.242;2022-08-07T10:32:02;3.30;;;1.98;;
70924;SDS011;58577;52.410;13.242;2022-08-07T10:35:18;2.35;;;1.70;;
70924;SDS011;58577;52.410;13.242;2022-08-07T10:41:14;2.53;;;1.80;;
70924;SDS011;58577;52.410;13.242;2022-08-07T10:50:10;2.72;;;2.10;;
70924;SDS011;58577;52.410;13.242;2022-08-07T10:53:11;3.55;;;1.90;;
70924;SDS011;58577;52.410;13.242;2022-08-07T10:56:03;2.63;;;1.77;;
70924;SDS011;58577;52.410;13.242;2022-08-07T10:58:59;4.88;;;2.17;;
70924;SDS011;58577;52.410;13.242;2022-08-07T11:02:01;6.20;;;2.10;;
70924;SDS011;58577;52.410;13.242;2022-08-07T11:11:38;4.95;;;2.38;;
70924;SDS011;58577;52.410;13.242;2022-08-07T11:15:33;2.15;;;1.90;;
70924;SDS011;58577;52.410;13.242;2022-08-07T11:17:53;1.88;;;1.73;;
70924;SDS011;58577;52.410;13.242;2022-08-07T11:21:05;3.05;;;1.90;;
70924;SDS011;58577;52.410;13.242;2022-08-07T11:24:04;4.15;;;1.92;;
70924;SDS011;58577;52.410;13.242;2022-08-07T11:30:09;3.10;;;1.75;;
70924;SDS011;58577;52.410;13.242;2022-08-07T11:33:08;2.55;;;1.80;;
70924;SDS011;58577;52.410;13.242;2022-08-07T11:39:01;4.70;;;1.70;;
70924;SDS011;58577;52.410;13.242;2022-08-07T11:45:12;2.85;;;1.70;;
70924;SDS011;58577;52.410;13.242;2022-08-07T11:48:29;2.03;;;1.75;;
70924;SDS011;58577;52.410;13.242;2022-08-07T11:57:32;2.60;;;1.70;;
70924;SDS011;58577;52.410;13.242;2022-08-07T12:00:19;2.15;;;1.92;;
70924;SDS011;58577;52.410;13.242;2022-08-07T12:12:09;2.75;;;1.92;;
70924;SDS011;58577;52.410;13.242;2022-08-07T12:15:00;2.10;;;1.73;;
70924;SDS011;58577;52.410;13.242;2022-08-07T12:17:58;3.75;;;2.10;;
70924;SDS011;58577;52.410;13.242;2022-08-07T12:20:55;1.67;;;1.50;;
70924;SDS011;58577;52.410;13.242;2022-08-07T12:23:50;2.33;;;1.77;;
70924;SDS011;58577;52.410;13.242;2022-08-07T12:26:47;2.65;;;1.75;;
70924;SDS011;58577;52.410;13.242;2022-08-07T12:29:45;1.98;;;1.58;;
70924;SDS011;58577;52.410;13.242;2022-08-07T12:32:40;2.33;;;1.60;;
70924;SDS011;58577;52.410;13.242;2022-08-07T12:35:29;3.15;;;1.52;;
70924;SDS011;58577;52.410;13.242;2022-08-07T12:38:15;3.30;;;1.90;;
70924;SDS011;58577;52.410;13.242;2022-08-07T12:41:03;6.38;;;1.60;;
70924;SDS011;58577;52.410;13.242;2022-08-07T12:43:51;2.03;;;1.90;;
70924;SDS011;58577;52.410;13.242;2022-08-07T12:52:50;3.58;;;1.80;;
70924;SDS011;58577;52.410;13.242;2022-08-07T12:55:41;3.30;;;1.90;;
70924;SDS011;58577;52.410;13.242;2022-08-07T12:58:34;2.10;;;1.80;;
70924;SDS011;58577;52.410;13.242;2022-08-07T13:01:49;3.42;;;2.15;;
70924;SDS011;58577;52.410;13.242;2022-08-07T13:11:40;5.05;;;2.17;;
70924;SDS011;58577;52.410;13.242;2022-08-07T13:18:15;3.83;;;1.85;;
70924;SDS011;58577;52.410;13.242;2022-08-07T13:24:29;4.53;;;1.95;;
70924;SDS011;58577;52.410;13.242;2022-08-07T13:30:10;3.63;;;2.15;;
70924;SDS011;58577;52.410;13.242;2022-08-07T13:33:04;3.75;;;1.92;;
70924;SDS011;58577;52.410;13.242;2022-08-07T13:35:55;3.33;;;2.10;;
70924;SDS011;58577;52.410;13.242;2022-08-07T13:41:53;2.08;;;1.88;;
70924;SDS011;58577;52.410;13.242;2022-08-07T13:44:41;2.17;;;1.70;;
70924;SDS011;58577;52.410;13.242;2022-08-07T13:47:29;4.03;;;1.92;;
70924;SDS011;58577;52.410;13.242;2022-08-07T13:50:15;3.17;;;1.95;;
70924;SDS011;58577;52.410;13.242;2022-08-07T13:53:07;3.05;;;2.08;;
70924;SDS011;58577;52.410;13.242;2022-08-07T13:55:54;3.28;;;1.90;;
70924;SDS011;58577;52.410;13.242;2022-08-07T13:58:43;2.60;;;1.83;;
70924;SDS011;58577;52.410;13.242;2022-08-07T14:04:49;2.20;;;2.00;;
70924;SDS011;58577;52.410;13.242;2022-08-07T14:07:39;2.22;;;1.80;;
70924;SDS011;58577;52.410;13.242;2022-08-07T14:10:34;1.95;;;1.80;;
70924;SDS011;58577;52.410;13.242;2022-08-07T14:13:25;2.70;;;1.80;;
70924;SDS011;58577;52.410;13.242;2022-08-07T14:16:15;4.45;;;2.13;;
70924;SDS011;58577;52.410;13.242;2022-08-07T14:19:02;3.03;;;2.10;;
70924;SDS011;58577;52.410;13.242;2022-08-07T14:21:56;4.25;;;2.55;;
70924;SDS011;58577;52.410;13.242;2022-08-07T14:24:44;2.30;;;1.98;;
70924;SDS011;58577;52.410;13.242;2022-08-07T14:27:37;4.18;;;1.85;;
70924;SDS011;58577;52.410;13.242;2022-08-07T14:30:27;3.63;;;1.98;;
70924;SDS011;58577;52.410;13.242;2022-08-07T14:33:15;2.10;;;2.00;;
70924;SDS011;58577;52.410;13.242;2022-08-07T14:36:01;2.70;;;2.20;;
70924;SDS011;58577;52.410;13.242;2022-08-07T14:38:48;3.80;;;1.98;;
70924;SDS011;58577;52.410;13.242;2022-08-07T14:41:36;4.13;;;1.83;;
70924;SDS011;58577;52.410;13.242;2022-08-07T14:44:24;3.40;;;2.10;;
70924;SDS011;58577;52.410;13.242;2022-08-07T14:47:13;1.67;;;1.58;;
70924;SDS011;58577;52.410;13.242;2022-08-07T14:50:04;4.28;;;1.90;;
70924;SDS011;58577;52.410;13.242;2022-08-07T14:52:53;4.07;;;2.00;;
70924;SDS011;58577;52.410;13.242;2022-08-07T14:55:40;1.98;;;1.88;;
70924;SDS011;58577;52.410;13.242;2022-08-07T14:58:30;2.75;;;1.70;;
70924;SDS011;58577;52.410;13.242;2022-08-07T15:01:22;3.53;;;2.17;;
70924;SDS011;58577;52.410;13.242;2022-08-07T15:04:11;5.50;;;2.60;;
70924;SDS011;58577;52.410;13.242;2022-08-07T15:06:58;5.03;;;2.22;;
70924;SDS011;58577;52.410;13.242;2022-08-07T15:09:44;3.63;;;2.10;;
70924;SDS011;58577;52.410;13.242;2022-08-07T15:12:34;3.13;;;2.20;;
70924;SDS011;58577;52.410;13.242;2022-08-07T15:15:40;4.03;;;2.28;;
70924;SDS011;58577;52.410;13.242;2022-08-07T15:18:50;3.75;;;2.13;;
70924;SDS011;58577;52.410;13.242;2022-08-07T15:21:41;2.30;;;2.10;;
70924;SDS011;58577;52.410;13.242;2022-08-07T15:24:33;3.45;;;2.30;;
70924;SDS011;58577;52.410;13.242;2022-08-07T15:27:23;4.20;;;2.40;;
70924;SDS011;58577;52.410;13.242;2022-08-07T15:30:12;7.05;;;2.67;;
70924;SDS011;58577;52.410;13.242;2022-08-07T15:32:59;5.38;;;2.70;;
70924;SDS011;58577;52.410;13.242;2022-08-07T15:35:50;2.75;;;2.30;;
70924;SDS011;58577;52.410;13.242;2022-08-07T15:38:37;3.97;;;2.40;;
70924;SDS011;58577;52.410;13.242;2022-08-07T15:41:27;2.92;;;2.28;;
70924;SDS011;58577;52.410;13.242;2022-08-07T15:44:16;3.10;;;2.10;;
70924;SDS011;58577;52.410;13.242;2022-08-07T15:47:05;4.03;;;2.22;;
70924;SDS011;58577;52.410;13.242;2022-08-07T15:49:53;3.55;;;2.28;;
70924;SDS011;58577;52.410;13.242;2022-08-07T15:52:41;2.42;;;2.17;;
70924;SDS011;58577;52.410;13.242;2022-08-07T15:55:29;2.95;;;2.38;;
70924;SDS011;58577;52.410;13.242;2022-08-07T15:58:18;4.60;;;2.50;;
70924;SDS011;58577;52.410;13.242;2022-08-07T16:01:12;3.08;;;2.50;;
70924;SDS011;58577;52.410;13.242;2022-08-07T16:04:09;4.68;;;2.60;;
70924;SDS011;58577;52.410;13.242;2022-08-07T16:06:58;4.38;;;2.30;;
70924;SDS011;58577;52.410;13.242;2022-08-07T16:09:51;2.53;;;2.33;;
70924;SDS011;58577;52.410;13.242;2022-08-07T16:12:47;2.30;;;2.10;;
70924;SDS011;58577;52.410;13.242;2022-08-07T16:15:48;3.95;;;3.08;;
70924;SDS011;58577;52.410;13.242;2022-08-07T16:28:15;5.28;;;2.38;;
70924;SDS011;58577;52.410;13.242;2022-08-07T16:53:28;5.28;;;2.20;;
70924;SDS011;58577;52.410;13.242;2022-08-07T17:02:39;3.33;;;2.90;;
70924;SDS011;58577;52.410;13.242;2022-08-07T17:08:48;3.05;;;2.10;;
70924;SDS011;58577;52.410;13.242;2022-08-07T17:11:55;5.85;;;2.30;;
70924;SDS011;58577;52.410;13.242;2022-08-07T17:18:08;2.80;;;2.30;;
70924;SDS011;58577;52.410;13.242;2022-08-07T17:21:03;3.00;;;2.35;;
70924;SDS011;58577;52.410;13.242;2022-08-07T17:27:28;4.43;;;2.88;;
70924;SDS011;58577;52.410;13.242;2022-08-07T17:30:20;18.98;;;7.50;;
70924;SDS011;58577;52.410;13.242;2022-08-07T17:36:22;4.97;;;2.38;;
70924;SDS011;58577;52.410;13.242;2022-08-07T17:39:13;5.53;;;2.10;;
70924;SDS011;58577;52.410;13.242;2022-08-07T17:42:04;4.30;;;2.22;;
70924;SDS011;58577;52.410;13.242;2022-08-07T17:44:57;3.40;;;2.60;;
70924;SDS011;58577;52.410;13.242;2022-08-07T17:47:49;11.00;;;6.85;;
70924;SDS011;58577;52.410;13.242;2022-08-07T17:50:57;4.53;;;3.50;;
70924;SDS011;58577;52.410;13.242;2022-08-07T17:53:46;3.25;;;2.80;;
70924;SDS011;58577;52.410;13.242;2022-08-07T17:56:47;6.13;;;2.67;;
70924;SDS011;58577;52.410;13.242;2022-08-07T17:59:43;3.33;;;2.20;;
70924;SDS011;58577;52.410;13.242;2022-08-07T18:02:53;3.22;;;2.40;;
70924;SDS011;58577;52.410;13.242;2022-08-07T18:20:17;5.50;;;2.60;;
70924;SDS011;58577;52.410;13.242;2022-08-07T18:23:13;5.35;;;2.60;;
70924;SDS011;58577;52.410;13.242;2022-08-07T18:26:11;4.30;;;2.53;;
70924;SDS011;58577;52.410;13.242;2022-08-07T18:29:03;3.88;;;2.55;;
70924;SDS011;58577;52.410;13.242;2022-08-07T18:32:07;4.35;;;2.60;;
70924;SDS011;58577;52.410;13.242;2022-08-07T18:38:20;5.10;;;2.90;;
70924;SDS011;58577;52.410;13.242;2022-08-07T18:41:24;7.72;;;2.85;;
70924;SDS011;58577;52.410;13.242;2022-08-07T18:53:20;5.90;;;2.95;;
70924;SDS011;58577;52.410;13.242;2022-08-07T18:56:38;4.13;;;2.88;;
70924;SDS011;58577;52.410;13.242;2022-08-07T19:06:11;4.90;;;3.10;;
70924;SDS011;58577;52.410;13.242;2022-08-07T19:09:07;5.75;;;2.83;;
70924;SDS011;58577;52.410;13.242;2022-08-07T19:23:58;6.65;;;3.08;;
70924;SDS011;58577;52.410;13.242;2022-08-07T19:26:48;5.53;;;3.03;;
70924;SDS011;58577;52.410;13.242;2022-08-07T19:29:40;5.40;;;3.10;;
70924;SDS011;58577;52.410;13.242;2022-08-07T19:32:29;8.75;;;3.40;;
70924;SDS011;58577;52.410;13.242;2022-08-07T19:35:19;10.05;;;3.70;;
70924;SDS011;58577;52.410;13.242;2022-08-07T19:38:09;6.57;;;3.50;;
70924;SDS011;58577;52.410;13.242;2022-08-07T19:40:57;10.40;;;4.63;;
70924;SDS011;58577;52.410;13.242;2022-08-07T19:43:47;12.02;;;4.70;;
70924;SDS011;58577;52.410;13.242;2022-08-07T19:46:39;9.75;;;4.80;;
70924;SDS011;58577;52.410;13.242;2022-08-07T19:49:27;9.30;;;4.63;;
70924;SDS011;58577;52.410;13.242;2022-08-07T19:52:17;9.15;;;5.20;;
70924;SDS011;58577;52.410;13.242;2022-08-07T19:55:05;11.88;;;5.95;;
70924;SDS011;58577;52.410;13.242;2022-08-07T19:57:55;12.90;;;6.07;;
70924;SDS011;58577;52.410;13.242;2022-08-07T20:00:44;14.88;;;6.60;;
70924;SDS011;58577;52.410;13.242;2022-08-07T20:03:32;11.93;;;6.07;;
70924;SDS011;58577;52.410;13.242;2022-08-07T20:06:21;14.38;;;6.50;;
70924;SDS011;58577;52.410;13.242;2022-08-07T20:09:14;13.35;;;6.35;;
70924;SDS011;58577;52.410;13.242;2022-08-07T20:12:00;10.82;;;5.53;;
70924;SDS011;58577;52.410;13.242;2022-08-07T20:14:46;12.73;;;6.38;;
70924;SDS011;58577;52.410;13.242;2022-08-07T20:17:35;14.07;;;6.32;;
70924;SDS011;58577;52.410;13.242;2022-08-07T20:20:23;11.52;;;5.45;;
70924;SDS011;58577;52.410;13.242;2022-08-07T20:23:11;12.05;;;6.40;;
70924;SDS011;58577;52.410;13.242;2022-08-07T20:26:05;14.50;;;6.00;;
70924;SDS011;58577;52.410;13.242;2022-08-07T20:28:53;14.60;;;5.63;;
70924;SDS011;58577;52.410;13.242;2022-08-07T20:31:44;8.68;;;5.20;;
70924;SDS011;58577;52.410;13.242;2022-08-07T20:34:32;12.35;;;5.75;;
70924;SDS011;58577;52.410;13.242;2022-08-07T20:37:22;13.82;;;5.65;;
70924;SDS011;58577;52.410;13.242;2022-08-07T20:40:13;12.55;;;5.50;;
70924;SDS011;58577;52.410;13.242;2022-08-07T20:43:01;12.07;;;5.80;;
70924;SDS011;58577;52.410;13.242;2022-08-07T20:45:49;11.25;;;6.05;;
70924;SDS011;58577;52.410;13.242;2022-08-07T20:48:37;12.23;;;6.07;;